sensor_id;sensor_type;location;lat;lon;timestamp;P1;durP1;ratioP1;P2;durP2;ratioP2
22904;SDS011;11619;50.140;8.518;2022-09-27T00:01:51;2.50;;;1.90;;
22904;SDS011;11619;50.140;8.518;2022-09-27T00:04:18;1.83;;;1.70;;
22904;SDS011;11619;50.140;8.518;2022-09-27T00:06:44;1.52;;;1.42;;
22904;SDS011;11619;50.140;8.518;2022-09-27T00:09:10;1.60;;;1.50;;
22904;SDS011;11619;50.140;8.518;2022-09-27T00:11:38;1.55;;;1.30;;
22904;SDS011;11619;50.140;8.518;2022-09-27T00:14:06;2.38;;;1.20;;
22904;SDS011;11619;50.140;8.518;2022-09-27T00:16:34;1.73;;;1.23;;
22904;SDS011;11619;50.140;8.518;2022-09-27T00:19:03;1.77;;;1.45;;
22904;SDS011;11619;50.140;8.518;2022-09-27T00:21:31;1.17;;;1.10;;
22904;SDS011;11619;50.140;8.518;2022-09-27T00:23:58;1.25;;;1.15;;
22904;SDS011;11619;50.140;8.518;2022-09-27T00:26:25;1.23;;;1.13;;
22904;SDS011;11619;50.140;8.518;2022-09-27T00:28:52;1.45;;;1.33;;
22904;SDS011;11619;50.140;8.518;2022-09-27T00:31:23;1.05;;;1.05;;
22904;SDS011;11619;50.140;8.518;2022-09-27T00:33:51;3.80;;;1.48;;
22904;SDS011;11619;50.140;8.518;2022-09-27T00:36:18;2.30;;;1.30;;
22904;SDS011;11619;50.140;8.518;2022-09-27T00:38:46;2.13;;;1.50;;
22904;SDS011;11619;50.140;8.518;2022-09-27T00:41:16;1.50;;;1.40;;
22904;SDS011;11619;50.140;8.518;2022-09-27T00:43:55;1.45;;;1.35;;
22904;SDS011;11619;50.140;8.518;2022-09-27T00:46:30;1.50;;;1.40;;
22904;SDS011;11619;50.140;8.518;2022-09-27T00:49:03;2.13;;;1.60;;
22904;SDS011;11619;50.140;8.518;2022-09-27T00:51:33;1.35;;;1.23;;
22904;SDS011;11619;50.140;8.518;2022-09-27T00:54:03;2.28;;;1.73;;
22904;SDS011;11619;50.140;8.518;2022-09-27T00:56:31;1.83;;;1.25;;
22904;SDS011;11619;50.140;8.518;2022-09-27T00:59:01;1.52;;;1.42;;
22904;SDS011;11619;50.140;8.518;2022-09-27T01:01:30;1.55;;;1.45;;
22904;SDS011;11619;50.140;8.518;2022-09-27T01:04:09;1.40;;;1.30;;
22904;SDS011;11619;50.140;8.518;2022-09-27T01:06:38;1.65;;;1.55;;
22904;SDS011;11619;50.140;8.518;2022-09-27T01:09:05;2.13;;;1.63;;
22904;SDS011;11619;50.140;8.518;2022-09-27T01:16:54;1.92;;;1.70;;
22904;SDS011;11619;50.140;8.518;2022-09-27T01:19:41;2.38;;;1.80;;
22904;SDS011;11619;50.140;8.518;2022-09-27T01:37:00;3.95;;;2.70;;
22904;SDS011;11619;50.140;8.518;2022-09-27T01:39:33;6.35;;;3.47;;
22904;SDS011;11619;50.140;8.518;2022-09-27T01:47:11;4.53;;;3.22;;
22904;SDS011;11619;50.140;8.518;2022-09-27T01:49:43;5.38;;;3.88;;
22904;SDS011;11619;50.140;8.518;2022-09-27T01:52:13;4.00;;;3.30;;
22904;SDS011;11619;50.140;8.518;2022-09-27T01:54:43;5.53;;;3.20;;
22904;SDS011;11619;50.140;8.518;2022-09-27T01:57:11;4.05;;;2.95;;
22904;SDS011;11619;50.140;8.518;2022-09-27T01:59:46;5.07;;;3.00;;
22904;SDS011;11619;50.140;8.518;2022-09-27T02:02:22;5.20;;;3.03;;
22904;SDS011;11619;50.140;8.518;2022-09-27T02:04:50;5.63;;;2.72;;
22904;SDS011;11619;50.140;8.518;2022-09-27T02:07:26;6.03;;;2.95;;
22904;SDS011;11619;50.140;8.518;2022-09-27T02:09:59;5.35;;;2.75;;
22904;SDS011;11619;50.140;8.518;2022-09-27T02:12:33;6.32;;;2.80;;
22904;SDS011;11619;50.140;8.518;2022-09-27T02:15:04;4.32;;;3.15;;
22904;SDS011;11619;50.140;8.518;2022-09-27T02:20:10;7.07;;;3.20;;
22904;SDS011;11619;50.140;8.518;2022-09-27T02:22:44;5.97;;;2.60;;
22904;SDS011;11619;50.140;8.518;2022-09-27T02:25:34;4.73;;;2.60;;
22904;SDS011;11619;50.140;8.518;2022-09-27T02:28:16;3.65;;;2.10;;
22904;SDS011;11619;50.140;8.518;2022-09-27T02:30:45;2.80;;;2.47;;
22904;SDS011;11619;50.140;8.518;2022-09-27T02:33:12;5.85;;;2.85;;
22904;SDS011;11619;50.140;8.518;2022-09-27T02:35:38;3.65;;;2.72;;
22904;SDS011;11619;50.140;8.518;2022-09-27T02:38:05;6.05;;;2.83;;
22904;SDS011;11619;50.140;8.518;2022-09-27T02:40:33;4.78;;;2.42;;
22904;SDS011;11619;50.140;8.518;2022-09-27T02:43:01;7.22;;;2.65;;
22904;SDS011;11619;50.140;8.518;2022-09-27T02:45:30;5.20;;;2.78;;
22904;SDS011;11619;50.140;8.518;2022-09-27T03:02:12;2.40;;;1.35;;
22904;SDS011;11619;50.140;8.518;2022-09-27T03:04:44;1.27;;;1.17;;
22904;SDS011;11619;50.140;8.518;2022-09-27T03:07:13;1.63;;;1.05;;
22904;SDS011;11619;50.140;8.518;2022-09-27T03:09:41;4.75;;;1.40;;
22904;SDS011;11619;50.140;8.518;2022-09-27T03:12:13;2.10;;;0.90;;
22904;SDS011;11619;50.140;8.518;2022-09-27T03:14:39;1.10;;;1.00;;
22904;SDS011;11619;50.140;8.518;2022-09-27T03:17:06;4.00;;;1.15;;
22904;SDS011;11619;50.140;8.518;2022-09-27T03:19:32;3.95;;;1.10;;
22904;SDS011;11619;50.140;8.518;2022-09-27T03:21:59;0.85;;;0.80;;
22904;SDS011;11619;50.140;8.518;2022-09-27T03:24:25;3.38;;;1.08;;
22904;SDS011;11619;50.140;8.518;2022-09-27T03:26:52;1.40;;;1.00;;
22904;SDS011;11619;50.140;8.518;2022-09-27T03:29:18;1.15;;;1.05;;
22904;SDS011;11619;50.140;8.518;2022-09-27T03:31:44;1.55;;;1.20;;
22904;SDS011;11619;50.140;8.518;2022-09-27T03:34:11;1.95;;;0.90;;
22904;SDS011;11619;50.140;8.518;2022-09-27T03:36:37;1.45;;;1.02;;
22904;SDS011;11619;50.140;8.518;2022-09-27T03:39:03;1.40;;;0.88;;
22904;SDS011;11619;50.140;8.518;2022-09-27T03:41:30;1.85;;;1.05;;
22904;SDS011;11619;50.140;8.518;2022-09-27T03:43:56;1.20;;;1.00;;
22904;SDS011;11619;50.140;8.518;2022-09-27T03:46:24;3.05;;;1.00;;
22904;SDS011;11619;50.140;8.518;2022-09-27T03:48:51;2.20;;;1.08;;
22904;SDS011;11619;50.140;8.518;2022-09-27T03:51:18;1.20;;;0.85;;
22904;SDS011;11619;50.140;8.518;2022-09-27T03:53:44;0.93;;;0.80;;
22904;SDS011;11619;50.140;8.518;2022-09-27T03:56:10;1.80;;;0.80;;
22904;SDS011;11619;50.140;8.518;2022-09-27T03:58:37;1.33;;;0.90;;
22904;SDS011;11619;50.140;8.518;2022-09-27T04:01:03;2.10;;;0.80;;
22904;SDS011;11619;50.140;8.518;2022-09-27T04:03:30;1.58;;;0.93;;
22904;SDS011;11619;50.140;8.518;2022-09-27T04:05:57;1.30;;;1.02;;
22904;SDS011;11619;50.140;8.518;2022-09-27T04:08:25;1.50;;;0.80;;
22904;SDS011;11619;50.140;8.518;2022-09-27T04:10:51;1.42;;;0.90;;
22904;SDS011;11619;50.140;8.518;2022-09-27T04:13:19;1.23;;;0.90;;
22904;SDS011;11619;50.140;8.518;2022-09-27T04:15:46;0.80;;;0.80;;
22904;SDS011;11619;50.140;8.518;2022-09-27T04:18:17;2.75;;;1.20;;
22904;SDS011;11619;50.140;8.518;2022-09-27T04:20:43;0.70;;;0.70;;
22904;SDS011;11619;50.140;8.518;2022-09-27T04:23:10;3.75;;;1.02;;
22904;SDS011;11619;50.140;8.518;2022-09-27T04:25:36;1.65;;;0.70;;
22904;SDS011;11619;50.140;8.518;2022-09-27T04:28:05;3.63;;;0.90;;
22904;SDS011;11619;50.140;8.518;2022-09-27T04:30:31;4.28;;;1.33;;
22904;SDS011;11619;50.140;8.518;2022-09-27T04:32:58;1.48;;;0.90;;
22904;SDS011;11619;50.140;8.518;2022-09-27T04:35:24;5.20;;;0.90;;
22904;SDS011;11619;50.140;8.518;2022-09-27T04:38:09;1.20;;;0.73;;
22904;SDS011;11619;50.140;8.518;2022-09-27T04:40:36;5.55;;;1.10;;
22904;SDS011;11619;50.140;8.518;2022-09-27T04:43:02;2.17;;;0.85;;
22904;SDS011;11619;50.140;8.518;2022-09-27T04:45:29;1.90;;;1.10;;
22904;SDS011;11619;50.140;8.518;2022-09-27T04:47:55;1.95;;;1.15;;
22904;SDS011;11619;50.140;8.518;2022-09-27T04:50:22;2.25;;;1.00;;
22904;SDS011;11619;50.140;8.518;2022-09-27T04:52:49;2.38;;;1.15;;
22904;SDS011;11619;50.140;8.518;2022-09-27T04:55:17;3.17;;;0.88;;
22904;SDS011;11619;50.140;8.518;2022-09-27T04:57:43;3.08;;;0.70;;
22904;SDS011;11619;50.140;8.518;2022-09-27T05:00:10;1.15;;;0.73;;
22904;SDS011;11619;50.140;8.518;2022-09-27T05:02:36;1.80;;;0.60;;
22904;SDS011;11619;50.140;8.518;2022-09-27T05:05:03;1.55;;;0.85;;
22904;SDS011;11619;50.140;8.518;2022-09-27T05:07:32;1.95;;;0.70;;
22904;SDS011;11619;50.140;8.518;2022-09-27T05:09:59;5.22;;;0.77;;
22904;SDS011;11619;50.140;8.518;2022-09-27T05:12:25;1.05;;;0.70;;
22904;SDS011;11619;50.140;8.518;2022-09-27T05:14:52;2.35;;;0.85;;
22904;SDS011;11619;50.140;8.518;2022-09-27T05:17:18;1.02;;;0.85;;
22904;SDS011;11619;50.140;8.518;2022-09-27T05:19:47;1.77;;;0.80;;
22904;SDS011;11619;50.140;8.518;2022-09-27T05:22:14;2.97;;;0.90;;
22904;SDS011;11619;50.140;8.518;2022-09-27T05:24:40;2.50;;;1.08;;
22904;SDS011;11619;50.140;8.518;2022-09-27T05:27:07;1.85;;;0.73;;
22904;SDS011;11619;50.140;8.518;2022-09-27T05:29:35;1.48;;;0.80;;
22904;SDS011;11619;50.140;8.518;2022-09-27T05:32:02;3.38;;;0.90;;
22904;SDS011;11619;50.140;8.518;2022-09-27T05:34:28;1.65;;;0.70;;
22904;SDS011;11619;50.140;8.518;2022-09-27T05:36:58;1.02;;;0.70;;
22904;SDS011;11619;50.140;8.518;2022-09-27T05:39:25;1.33;;;0.75;;
22904;SDS011;11619;50.140;8.518;2022-09-27T05:41:51;0.50;;;0.50;;
22904;SDS011;11619;50.140;8.518;2022-09-27T05:44:19;1.02;;;0.70;;
22904;SDS011;11619;50.140;8.518;2022-09-27T05:46:46;1.08;;;0.88;;
22904;SDS011;11619;50.140;8.518;2022-09-27T05:49:12;3.13;;;0.85;;
22904;SDS011;11619;50.140;8.518;2022-09-27T05:51:38;0.90;;;0.90;;
22904;SDS011;11619;50.140;8.518;2022-09-27T05:54:05;1.95;;;0.82;;
22904;SDS011;11619;50.140;8.518;2022-09-27T05:56:31;1.23;;;0.73;;
22904;SDS011;11619;50.140;8.518;2022-09-27T05:58:57;2.08;;;0.82;;
22904;SDS011;11619;50.140;8.518;2022-09-27T06:01:24;1.17;;;0.80;;
22904;SDS011;11619;50.140;8.518;2022-09-27T06:03:53;1.50;;;0.82;;
22904;SDS011;11619;50.140;8.518;2022-09-27T06:06:20;3.92;;;0.95;;
22904;SDS011;11619;50.140;8.518;2022-09-27T06:08:48;1.80;;;0.70;;
22904;SDS011;11619;50.140;8.518;2022-09-27T06:11:15;1.55;;;0.70;;
22904;SDS011;11619;50.140;8.518;2022-09-27T06:13:41;1.05;;;0.90;;
22904;SDS011;11619;50.140;8.518;2022-09-27T06:16:08;1.58;;;0.70;;
22904;SDS011;11619;50.140;8.518;2022-09-27T06:18:35;1.75;;;0.82;;
22904;SDS011;11619;50.140;8.518;2022-09-27T06:21:02;1.85;;;0.88;;
22904;SDS011;11619;50.140;8.518;2022-09-27T06:23:29;0.90;;;0.90;;
22904;SDS011;11619;50.140;8.518;2022-09-27T06:26:03;1.08;;;0.98;;
22904;SDS011;11619;50.140;8.518;2022-09-27T06:28:31;1.00;;;1.00;;
22904;SDS011;11619;50.140;8.518;2022-09-27T06:30:58;3.15;;;0.93;;
22904;SDS011;11619;50.140;8.518;2022-09-27T06:33:27;0.77;;;0.77;;
22904;SDS011;11619;50.140;8.518;2022-09-27T06:35:53;1.08;;;0.77;;
22904;SDS011;11619;50.140;8.518;2022-09-27T06:38:20;0.88;;;0.88;;
22904;SDS011;11619;50.140;8.518;2022-09-27T06:40:47;5.38;;;1.05;;
22904;SDS011;11619;50.140;8.518;2022-09-27T06:43:14;0.90;;;0.90;;
22904;SDS011;11619;50.140;8.518;2022-09-27T06:45:42;1.38;;;0.93;;
22904;SDS011;11619;50.140;8.518;2022-09-27T06:48:09;2.70;;;1.05;;
22904;SDS011;11619;50.140;8.518;2022-09-27T06:50:38;3.20;;;0.93;;
22904;SDS011;11619;50.140;8.518;2022-09-27T06:53:06;2.25;;;0.90;;
22904;SDS011;11619;50.140;8.518;2022-09-27T06:55:35;1.77;;;1.10;;
22904;SDS011;11619;50.140;8.518;2022-09-27T06:58:02;1.00;;;0.75;;
22904;SDS011;11619;50.140;8.518;2022-09-27T07:00:50;1.20;;;0.85;;
22904;SDS011;11619;50.140;8.518;2022-09-27T07:03:19;1.25;;;0.80;;
22904;SDS011;11619;50.140;8.518;2022-09-27T07:06:06;0.80;;;0.80;;
22904;SDS011;11619;50.140;8.518;2022-09-27T07:08:37;1.65;;;0.95;;
22904;SDS011;11619;50.140;8.518;2022-09-27T07:11:05;1.08;;;1.02;;
22904;SDS011;11619;50.140;8.518;2022-09-27T07:13:32;1.08;;;0.98;;
22904;SDS011;11619;50.140;8.518;2022-09-27T07:16:02;3.33;;;1.08;;
22904;SDS011;11619;50.140;8.518;2022-09-27T07:18:28;2.53;;;0.85;;
22904;SDS011;11619;50.140;8.518;2022-09-27T07:20:55;0.93;;;0.90;;
22904;SDS011;11619;50.140;8.518;2022-09-27T07:23:25;1.17;;;0.80;;
22904;SDS011;11619;50.140;8.518;2022-09-27T07:25:52;1.00;;;0.90;;
22904;SDS011;11619;50.140;8.518;2022-09-27T07:28:18;1.20;;;0.95;;
22904;SDS011;11619;50.140;8.518;2022-09-27T07:30:47;1.60;;;0.70;;
22904;SDS011;11619;50.140;8.518;2022-09-27T07:33:13;1.98;;;0.95;;
22904;SDS011;11619;50.140;8.518;2022-09-27T07:35:40;0.80;;;0.70;;
22904;SDS011;11619;50.140;8.518;2022-09-27T07:38:08;0.90;;;0.60;;
22904;SDS011;11619;50.140;8.518;2022-09-27T07:40:38;1.75;;;0.95;;
22904;SDS011;11619;50.140;8.518;2022-09-27T07:43:05;1.27;;;0.65;;
22904;SDS011;11619;50.140;8.518;2022-09-27T07:45:34;0.93;;;0.68;;
22904;SDS011;11619;50.140;8.518;2022-09-27T07:48:04;0.47;;;0.47;;
22904;SDS011;11619;50.140;8.518;2022-09-27T07:50:31;1.80;;;0.70;;
22904;SDS011;11619;50.140;8.518;2022-09-27T07:52:58;1.65;;;0.60;;
22904;SDS011;11619;50.140;8.518;2022-09-27T07:55:24;0.60;;;0.60;;
22904;SDS011;11619;50.140;8.518;2022-09-27T07:57:50;2.70;;;0.80;;
22904;SDS011;11619;50.140;8.518;2022-09-27T08:00:17;1.05;;;0.77;;
22904;SDS011;11619;50.140;8.518;2022-09-27T08:02:47;1.95;;;0.88;;
22904;SDS011;11619;50.140;8.518;2022-09-27T08:05:13;1.52;;;0.80;;
22904;SDS011;11619;50.140;8.518;2022-09-27T08:07:40;2.25;;;0.70;;
22904;SDS011;11619;50.140;8.518;2022-09-27T08:10:06;4.88;;;1.05;;
22904;SDS011;11619;50.140;8.518;2022-09-27T08:12:34;3.92;;;1.10;;
22904;SDS011;11619;50.140;8.518;2022-09-27T08:15:02;2.08;;;0.55;;
22904;SDS011;11619;50.140;8.518;2022-09-27T08:17:29;3.28;;;0.80;;
22904;SDS011;11619;50.140;8.518;2022-09-27T08:19:56;1.70;;;0.77;;
22904;SDS011;11619;50.140;8.518;2022-09-27T08:22:23;2.53;;;0.80;;
22904;SDS011;11619;50.140;8.518;2022-09-27T08:24:49;4.95;;;0.90;;
22904;SDS011;11619;50.140;8.518;2022-09-27T08:27:16;1.15;;;0.70;;
22904;SDS011;11619;50.140;8.518;2022-09-27T08:29:42;2.53;;;0.80;;
22904;SDS011;11619;50.140;8.518;2022-09-27T08:32:09;2.53;;;0.68;;
22904;SDS011;11619;50.140;8.518;2022-09-27T08:34:36;4.05;;;0.70;;
22904;SDS011;11619;50.140;8.518;2022-09-27T08:37:03;2.53;;;1.00;;
22904;SDS011;11619;50.140;8.518;2022-09-27T08:39:30;2.40;;;1.08;;
22904;SDS011;11619;50.140;8.518;2022-09-27T08:44:37;5.13;;;1.08;;
22904;SDS011;11619;50.140;8.518;2022-09-27T08:47:21;1.13;;;0.90;;
22904;SDS011;11619;50.140;8.518;2022-09-27T08:49:52;3.88;;;0.90;;
22904;SDS011;11619;50.140;8.518;2022-09-27T08:52:23;2.55;;;0.70;;
22904;SDS011;11619;50.140;8.518;2022-09-27T08:54:52;1.27;;;0.82;;
22904;SDS011;11619;50.140;8.518;2022-09-27T08:57:21;2.50;;;0.70;;
22904;SDS011;11619;50.140;8.518;2022-09-27T08:59:52;1.55;;;0.85;;
22904;SDS011;11619;50.140;8.518;2022-09-27T09:02:32;2.97;;;0.60;;
22904;SDS011;11619;50.140;8.518;2022-09-27T09:05:09;1.83;;;0.93;;
22904;SDS011;11619;50.140;8.518;2022-09-27T09:14:06;0.57;;;0.47;;
22904;SDS011;11619;50.140;8.518;2022-09-27T09:16:41;4.15;;;0.70;;
22904;SDS011;11619;50.140;8.518;2022-09-27T09:21:49;1.60;;;0.70;;
22904;SDS011;11619;50.140;8.518;2022-09-27T09:24:28;1.35;;;0.80;;
22904;SDS011;11619;50.140;8.518;2022-09-27T09:27:20;1.45;;;0.80;;
22904;SDS011;11619;50.140;8.518;2022-09-27T09:38:02;0.75;;;0.63;;
22904;SDS011;11619;50.140;8.518;2022-09-27T09:40:34;0.57;;;0.55;;
22904;SDS011;11619;50.140;8.518;2022-09-27T09:43:17;2.45;;;0.70;;
22904;SDS011;11619;50.140;8.518;2022-09-27T09:46:15;3.40;;;0.80;;
22904;SDS011;11619;50.140;8.518;2022-09-27T09:48:56;1.65;;;0.63;;
22904;SDS011;11619;50.140;8.518;2022-09-27T09:51:46;1.65;;;0.90;;
22904;SDS011;11619;50.140;8.518;2022-09-27T09:56:58;2.20;;;0.90;;
22904;SDS011;11619;50.140;8.518;2022-09-27T10:02:33;2.22;;;0.55;;
22904;SDS011;11619;50.140;8.518;2022-09-27T10:05:01;3.78;;;0.80;;
22904;SDS011;11619;50.140;8.518;2022-09-27T10:07:33;0.75;;;0.57;;
22904;SDS011;11619;50.140;8.518;2022-09-27T10:10:02;1.10;;;0.52;;
22904;SDS011;11619;50.140;8.518;2022-09-27T10:12:30;2.13;;;0.70;;
22904;SDS011;11619;50.140;8.518;2022-09-27T10:14:58;1.13;;;0.50;;
22904;SDS011;11619;50.140;8.518;2022-09-27T10:17:27;1.38;;;0.75;;
22904;SDS011;11619;50.140;8.518;2022-09-27T10:20:02;1.75;;;0.52;;
22904;SDS011;11619;50.140;8.518;2022-09-27T10:22:31;0.40;;;0.40;;
22904;SDS011;11619;50.140;8.518;2022-09-27T10:27:41;0.75;;;0.52;;
22904;SDS011;11619;50.140;8.518;2022-09-27T10:33:18;2.17;;;0.57;;
22904;SDS011;11619;50.140;8.518;2022-09-27T10:35:45;0.52;;;0.43;;
22904;SDS011;11619;50.140;8.518;2022-09-27T10:40:43;1.15;;;0.70;;
22904;SDS011;11619;50.140;8.518;2022-09-27T10:46:31;2.38;;;0.90;;
22904;SDS011;11619;50.140;8.518;2022-09-27T10:49:08;0.85;;;0.60;;
22904;SDS011;11619;50.140;8.518;2022-09-27T10:51:41;1.48;;;0.73;;
22904;SDS011;11619;50.140;8.518;2022-09-27T10:54:18;1.00;;;0.70;;
22904;SDS011;11619;50.140;8.518;2022-09-27T10:56:53;1.63;;;0.73;;
22904;SDS011;11619;50.140;8.518;2022-09-27T10:59:21;0.68;;;0.57;;
22904;SDS011;11619;50.140;8.518;2022-09-27T11:01:47;0.63;;;0.52;;
22904;SDS011;11619;50.140;8.518;2022-09-27T11:04:18;0.70;;;0.70;;
22904;SDS011;11619;50.140;8.518;2022-09-27T11:07:08;0.95;;;0.70;;
22904;SDS011;11619;50.140;8.518;2022-09-27T11:09:52;1.77;;;0.90;;
22904;SDS011;11619;50.140;8.518;2022-09-27T11:12:20;2.88;;;0.65;;
22904;SDS011;11619;50.140;8.518;2022-09-27T11:14:52;1.67;;;0.70;;
22904;SDS011;11619;50.140;8.518;2022-09-27T11:17:25;1.00;;;0.68;;
22904;SDS011;11619;50.140;8.518;2022-09-27T11:26:04;1.65;;;0.70;;
22904;SDS011;11619;50.140;8.518;2022-09-27T11:29:12;0.98;;;0.80;;
22904;SDS011;11619;50.140;8.518;2022-09-27T11:48:47;0.40;;;0.40;;
22904;SDS011;11619;50.140;8.518;2022-09-27T11:54:28;0.73;;;0.60;;
22904;SDS011;11619;50.140;8.518;2022-09-27T12:10:38;0.85;;;0.52;;
22904;SDS011;11619;50.140;8.518;2022-09-27T12:13:07;1.80;;;0.90;;
22904;SDS011;11619;50.140;8.518;2022-09-27T12:15:38;0.63;;;0.50;;
22904;SDS011;11619;50.140;8.518;2022-09-27T12:20:42;0.63;;;0.63;;
22904;SDS011;11619;50.140;8.518;2022-09-27T12:23:17;1.50;;;1.13;;
22904;SDS011;11619;50.140;8.518;2022-09-27T12:25:43;0.98;;;0.75;;
22904;SDS011;11619;50.140;8.518;2022-09-27T12:28:33;0.98;;;0.57;;
22904;SDS011;11619;50.140;8.518;2022-09-27T12:31:08;0.85;;;0.63;;
22904;SDS011;11619;50.140;8.518;2022-09-27T12:36:33;4.00;;;0.88;;
22904;SDS011;11619;50.140;8.518;2022-09-27T12:41:35;1.05;;;0.85;;
22904;SDS011;11619;50.140;8.518;2022-09-27T12:44:04;1.13;;;0.77;;
22904;SDS011;11619;50.140;8.518;2022-09-27T12:46:52;0.98;;;0.90;;
22904;SDS011;11619;50.140;8.518;2022-09-27T12:52:27;1.15;;;0.88;;
22904;SDS011;11619;50.140;8.518;2022-09-27T12:55:10;1.55;;;0.90;;
22904;SDS011;11619;50.140;8.518;2022-09-27T13:00:57;2.25;;;1.00;;
22904;SDS011;11619;50.140;8.518;2022-09-27T13:06:53;1.50;;;1.13;;
22904;SDS011;11619;50.140;8.518;2022-09-27T13:14:41;3.75;;;1.20;;
22904;SDS011;11619;50.140;8.518;2022-09-27T13:22:57;1.13;;;0.90;;
22904;SDS011;11619;50.140;8.518;2022-09-27T13:30:57;1.40;;;0.90;;
22904;SDS011;11619;50.140;8.518;2022-09-27T13:36:15;3.47;;;1.00;;
22904;SDS011;11619;50.140;8.518;2022-09-27T13:50:16;1.98;;;1.00;;
22904;SDS011;11619;50.140;8.518;2022-09-27T13:53:04;2.03;;;0.80;;
22904;SDS011;11619;50.140;8.518;2022-09-27T13:58:22;1.75;;;0.90;;
22904;SDS011;11619;50.140;8.518;2022-09-27T14:00:57;2.35;;;1.00;;
22904;SDS011;11619;50.140;8.518;2022-09-27T14:06:16;1.65;;;0.95;;
22904;SDS011;11619;50.140;8.518;2022-09-27T14:08:50;1.42;;;0.90;;
22904;SDS011;11619;50.140;8.518;2022-09-27T14:11:24;1.70;;;0.80;;
22904;SDS011;11619;50.140;8.518;2022-09-27T14:13:53;4.03;;;1.15;;
22904;SDS011;11619;50.140;8.518;2022-09-27T14:16:20;1.42;;;0.85;;
22904;SDS011;11619;50.140;8.518;2022-09-27T14:18:50;2.25;;;0.82;;
22904;SDS011;11619;50.140;8.518;2022-09-27T14:21:32;1.08;;;0.80;;
22904;SDS011;11619;50.140;8.518;2022-09-27T14:26:47;1.15;;;1.05;;
22904;SDS011;11619;50.140;8.518;2022-09-27T14:29:18;1.10;;;0.90;;
22904;SDS011;11619;50.140;8.518;2022-09-27T14:31:46;2.47;;;1.17;;
22904;SDS011;11619;50.140;8.518;2022-09-27T14:34:27;1.67;;;1.05;;
22904;SDS011;11619;50.140;8.518;2022-09-27T14:36:53;3.50;;;1.17;;
22904;SDS011;11619;50.140;8.518;2022-09-27T14:39:38;1.08;;;0.95;;
22904;SDS011;11619;50.140;8.518;2022-09-27T14:42:15;1.00;;;0.90;;
22904;SDS011;11619;50.140;8.518;2022-09-27T14:44:43;2.05;;;1.10;;
22904;SDS011;11619;50.140;8.518;2022-09-27T14:47:20;1.10;;;0.80;;
22904;SDS011;11619;50.140;8.518;2022-09-27T14:49:51;1.48;;;1.13;;
22904;SDS011;11619;50.140;8.518;2022-09-27T14:52:28;2.78;;;1.20;;
22904;SDS011;11619;50.140;8.518;2022-09-27T14:54:59;0.80;;;0.80;;
22904;SDS011;11619;50.140;8.518;2022-09-27T14:57:28;2.95;;;1.20;;
22904;SDS011;11619;50.140;8.518;2022-09-27T14:59:57;2.63;;;1.70;;
22904;SDS011;11619;50.140;8.518;2022-09-27T15:02:26;2.25;;;1.90;;
22904;SDS011;11619;50.140;8.518;2022-09-27T15:04:53;3.35;;;1.30;;
22904;SDS011;11619;50.140;8.518;2022-09-27T15:07:20;1.90;;;1.08;;
22904;SDS011;11619;50.140;8.518;2022-09-27T15:09:47;1.20;;;1.10;;
22904;SDS011;11619;50.140;8.518;2022-09-27T15:12:19;2.60;;;1.30;;
22904;SDS011;11619;50.140;8.518;2022-09-27T15:14:50;2.15;;;1.27;;
22904;SDS011;11619;50.140;8.518;2022-09-27T15:17:19;2.45;;;1.08;;
22904;SDS011;11619;50.140;8.518;2022-09-27T15:20:16;1.90;;;1.23;;
22904;SDS011;11619;50.140;8.518;2022-09-27T15:22:45;1.10;;;0.90;;
22904;SDS011;11619;50.140;8.518;2022-09-27T15:27:46;3.05;;;1.48;;
22904;SDS011;11619;50.140;8.518;2022-09-27T15:30:17;2.33;;;1.30;;
22904;SDS011;11619;50.140;8.518;2022-09-27T15:32:49;1.67;;;1.50;;
22904;SDS011;11619;50.140;8.518;2022-09-27T15:35:22;2.70;;;1.85;;
22904;SDS011;11619;50.140;8.518;2022-09-27T15:37:50;6.32;;;3.40;;
22904;SDS011;11619;50.140;8.518;2022-09-27T15:42:57;2.13;;;1.73;;
22904;SDS011;11619;50.140;8.518;2022-09-27T15:45:32;3.90;;;1.38;;
22904;SDS011;11619;50.140;8.518;2022-09-27T15:48:13;1.38;;;1.23;;
22904;SDS011;11619;50.140;8.518;2022-09-27T15:50:41;1.58;;;1.10;;
22904;SDS011;11619;50.140;8.518;2022-09-27T15:53:08;1.30;;;1.20;;
22904;SDS011;11619;50.140;8.518;2022-09-27T15:55:38;1.38;;;1.27;;
22904;SDS011;11619;50.140;8.518;2022-09-27T15:58:17;1.65;;;1.10;;
22904;SDS011;11619;50.140;8.518;2022-09-27T16:00:55;2.50;;;1.20;;
22904;SDS011;11619;50.140;8.518;2022-09-27T16:03:23;2.88;;;0.93;;
22904;SDS011;11619;50.140;8.518;2022-09-27T16:05:51;1.70;;;0.80;;
22904;SDS011;11619;50.140;8.518;2022-09-27T16:08:18;1.75;;;0.93;;
22904;SDS011;11619;50.140;8.518;2022-09-27T16:10:45;1.20;;;1.10;;
22904;SDS011;11619;50.140;8.518;2022-09-27T16:13:14;1.10;;;1.00;;
22904;SDS011;11619;50.140;8.518;2022-09-27T16:15:40;1.40;;;1.15;;
22904;SDS011;11619;50.140;8.518;2022-09-27T16:18:06;1.38;;;1.10;;
22904;SDS011;11619;50.140;8.518;2022-09-27T16:20:33;1.50;;;1.20;;
22904;SDS011;11619;50.140;8.518;2022-09-27T16:23:00;1.83;;;1.38;;
22904;SDS011;11619;50.140;8.518;2022-09-27T16:25:26;3.13;;;1.58;;
22904;SDS011;11619;50.140;8.518;2022-09-27T16:27:56;1.48;;;1.38;;
22904;SDS011;11619;50.140;8.518;2022-09-27T16:30:23;2.78;;;1.33;;
22904;SDS011;11619;50.140;8.518;2022-09-27T16:32:50;2.05;;;1.60;;
22904;SDS011;11619;50.140;8.518;2022-09-27T16:35:17;1.58;;;1.08;;
22904;SDS011;11619;50.140;8.518;2022-09-27T16:37:44;1.38;;;1.13;;
22904;SDS011;11619;50.140;8.518;2022-09-27T16:40:11;1.45;;;1.13;;
22904;SDS011;11619;50.140;8.518;2022-09-27T16:42:38;1.52;;;1.17;;
22904;SDS011;11619;50.140;8.518;2022-09-27T16:45:06;2.55;;;1.20;;
22904;SDS011;11619;50.140;8.518;2022-09-27T16:47:37;2.00;;;1.20;;
22904;SDS011;11619;50.140;8.518;2022-09-27T16:50:04;1.25;;;1.15;;
22904;SDS011;11619;50.140;8.518;2022-09-27T16:52:49;2.40;;;1.30;;
22904;SDS011;11619;50.140;8.518;2022-09-27T16:55:17;1.23;;;1.13;;
22904;SDS011;11619;50.140;8.518;2022-09-27T16:57:46;2.65;;;1.50;;
22904;SDS011;11619;50.140;8.518;2022-09-27T17:00:12;5.10;;;1.40;;
22904;SDS011;11619;50.140;8.518;2022-09-27T17:02:39;1.27;;;1.17;;
22904;SDS011;11619;50.140;8.518;2022-09-27T17:05:06;1.63;;;1.50;;
22904;SDS011;11619;50.140;8.518;2022-09-27T17:07:32;2.10;;;1.60;;
22904;SDS011;11619;50.140;8.518;2022-09-27T17:09:59;1.98;;;1.67;;
22904;SDS011;11619;50.140;8.518;2022-09-27T17:12:25;2.10;;;1.73;;
22904;SDS011;11619;50.140;8.518;2022-09-27T17:14:51;4.35;;;1.80;;
22904;SDS011;11619;50.140;8.518;2022-09-27T17:17:18;1.67;;;1.42;;
22904;SDS011;11619;50.140;8.518;2022-09-27T17:19:44;2.03;;;1.77;;
22904;SDS011;11619;50.140;8.518;2022-09-27T17:22:10;2.42;;;1.83;;
22904;SDS011;11619;50.140;8.518;2022-09-27T17:24:37;2.65;;;2.08;;
22904;SDS011;11619;50.140;8.518;2022-09-27T17:27:03;2.67;;;1.98;;
22904;SDS011;11619;50.140;8.518;2022-09-27T17:29:32;5.47;;;3.88;;
22904;SDS011;11619;50.140;8.518;2022-09-27T17:31:59;4.10;;;3.45;;
22904;SDS011;11619;50.140;8.518;2022-09-27T17:34:25;4.28;;;3.88;;
22904;SDS011;11619;50.140;8.518;2022-09-27T17:36:52;4.28;;;3.88;;
22904;SDS011;11619;50.140;8.518;2022-09-27T17:39:19;3.17;;;2.72;;
22904;SDS011;11619;50.140;8.518;2022-09-27T17:41:47;2.55;;;1.73;;
22904;SDS011;11619;50.140;8.518;2022-09-27T17:44:14;2.35;;;1.80;;
22904;SDS011;11619;50.140;8.518;2022-09-27T17:46:43;3.42;;;2.90;;
22904;SDS011;11619;50.140;8.518;2022-09-27T17:49:10;3.13;;;2.90;;
22904;SDS011;11619;50.140;8.518;2022-09-27T17:51:56;3.28;;;2.95;;
22904;SDS011;11619;50.140;8.518;2022-09-27T17:54:23;4.18;;;2.85;;
22904;SDS011;11619;50.140;8.518;2022-09-27T17:56:52;3.85;;;2.53;;
22904;SDS011;11619;50.140;8.518;2022-09-27T17:59:21;3.35;;;3.05;;
22904;SDS011;11619;50.140;8.518;2022-09-27T18:01:47;4.25;;;3.63;;
22904;SDS011;11619;50.140;8.518;2022-09-27T18:04:15;3.50;;;3.20;;
22904;SDS011;11619;50.140;8.518;2022-09-27T18:06:43;2.70;;;2.50;;